sensor_id;sensor_type;location;lat;lon;timestamp;P1;durP1;ratioP1;P2;durP2;ratioP2
31514;SDS011;40526;52.088;17.020;2023-05-02T00:03:05;12.35;;;6.22;;
31514;SDS011;40526;52.088;17.020;2023-05-02T00:08:09;8.70;;;6.38;;
31514;SDS011;40526;52.088;17.020;2023-05-02T00:13:12;10.50;;;6.82;;
31514;SDS011;40526;52.088;17.020;2023-05-02T00:18:14;11.82;;;7.07;;
31514;SDS011;40526;52.088;17.020;2023-05-02T00:23:18;9.85;;;6.72;;
31514;SDS011;40526;52.088;17.020;2023-05-02T00:28:21;8.93;;;6.53;;
31514;SDS011;40526;52.088;17.020;2023-05-02T00:33:23;10.32;;;6.80;;
31514;SDS011;40526;52.088;17.020;2023-05-02T00:38:27;8.75;;;6.57;;
31514;SDS011;40526;52.088;17.020;2023-05-02T00:43:29;12.25;;;6.05;;
31514;SDS011;40526;52.088;17.020;2023-05-02T00:48:31;8.52;;;5.90;;
31514;SDS011;40526;52.088;17.020;2023-05-02T00:53:35;10.07;;;6.40;;
31514;SDS011;40526;52.088;17.020;2023-05-02T00:58:38;10.07;;;6.63;;
31514;SDS011;40526;52.088;17.020;2023-05-02T01:03:43;11.77;;;6.57;;
31514;SDS011;40526;52.088;17.020;2023-05-02T01:09:07;9.75;;;6.32;;
31514;SDS011;40526;52.088;17.020;2023-05-02T01:14:18;10.57;;;6.35;;
31514;SDS011;40526;52.088;17.020;2023-05-02T01:19:24;11.10;;;6.18;;
31514;SDS011;40526;52.088;17.020;2023-05-02T01:24:29;9.25;;;6.10;;
31514;SDS011;40526;52.088;17.020;2023-05-02T01:29:38;8.75;;;6.10;;
31514;SDS011;40526;52.088;17.020;2023-05-02T01:34:41;12.60;;;6.28;;
31514;SDS011;40526;52.088;17.020;2023-05-02T01:39:47;9.73;;;6.60;;
31514;SDS011;40526;52.088;17.020;2023-05-02T01:44:51;7.82;;;6.18;;
31514;SDS011;40526;52.088;17.020;2023-05-02T01:49:56;10.98;;;6.40;;
31514;SDS011;40526;52.088;17.020;2023-05-02T01:54:59;9.40;;;6.55;;
31514;SDS011;40526;52.088;17.020;2023-05-02T02:00:03;8.02;;;5.97;;
31514;SDS011;40526;52.088;17.020;2023-05-02T02:05:13;10.77;;;7.20;;
31514;SDS011;40526;52.088;17.020;2023-05-02T02:10:16;11.05;;;6.40;;
31514;SDS011;40526;52.088;17.020;2023-05-02T02:15:21;11.23;;;6.55;;
31514;SDS011;40526;52.088;17.020;2023-05-02T02:20:24;15.07;;;6.47;;
31514;SDS011;40526;52.088;17.020;2023-05-02T02:25:27;8.63;;;6.40;;
31514;SDS011;40526;52.088;17.020;2023-05-02T02:30:32;11.45;;;7.47;;
31514;SDS011;40526;52.088;17.020;2023-05-02T02:35:36;8.45;;;7.13;;
31514;SDS011;40526;52.088;17.020;2023-05-02T02:40:40;12.25;;;8.38;;
31514;SDS011;40526;52.088;17.020;2023-05-02T02:45:47;11.43;;;7.65;;
31514;SDS011;40526;52.088;17.020;2023-05-02T02:50:53;11.90;;;8.18;;
31514;SDS011;40526;52.088;17.020;2023-05-02T02:55:59;15.20;;;8.75;;
31514;SDS011;40526;52.088;17.020;2023-05-02T03:01:08;12.10;;;8.38;;
31514;SDS011;40526;52.088;17.020;2023-05-02T03:06:12;10.60;;;8.25;;
31514;SDS011;40526;52.088;17.020;2023-05-02T03:11:15;11.27;;;7.90;;
31514;SDS011;40526;52.088;17.020;2023-05-02T03:16:30;12.18;;;8.52;;
31514;SDS011;40526;52.088;17.020;2023-05-02T03:21:36;11.85;;;8.80;;
31514;SDS011;40526;52.088;17.020;2023-05-02T03:26:48;13.65;;;8.63;;
31514;SDS011;40526;52.088;17.020;2023-05-02T03:31:57;14.38;;;10.02;;
31514;SDS011;40526;52.088;17.020;2023-05-02T03:37:00;11.35;;;8.40;;
31514;SDS011;40526;52.088;17.020;2023-05-02T03:42:04;11.40;;;7.80;;
31514;SDS011;40526;52.088;17.020;2023-05-02T03:47:08;13.68;;;9.10;;
31514;SDS011;40526;52.088;17.020;2023-05-02T03:52:14;14.68;;;9.05;;
31514;SDS011;40526;52.088;17.020;2023-05-02T03:57:18;12.00;;;8.07;;
31514;SDS011;40526;52.088;17.020;2023-05-02T04:02:22;13.35;;;8.07;;
31514;SDS011;40526;52.088;17.020;2023-05-02T04:07:25;12.68;;;7.18;;
31514;SDS011;40526;52.088;17.020;2023-05-02T04:12:37;10.75;;;7.72;;
31514;SDS011;40526;52.088;17.020;2023-05-02T04:17:41;10.63;;;7.70;;
31514;SDS011;40526;52.088;17.020;2023-05-02T04:22:46;15.48;;;7.97;;
31514;SDS011;40526;52.088;17.020;2023-05-02T04:27:49;13.18;;;7.82;;
31514;SDS011;40526;52.088;17.020;2023-05-02T04:32:57;9.30;;;6.72;;
31514;SDS011;40526;52.088;17.020;2023-05-02T04:38:03;11.30;;;7.50;;
31514;SDS011;40526;52.088;17.020;2023-05-02T04:43:06;15.02;;;8.00;;
31514;SDS011;40526;52.088;17.020;2023-05-02T04:48:15;14.50;;;8.10;;
31514;SDS011;40526;52.088;17.020;2023-05-02T04:53:17;10.77;;;7.65;;
31514;SDS011;40526;52.088;17.020;2023-05-02T04:58:22;11.95;;;8.68;;
31514;SDS011;40526;52.088;17.020;2023-05-02T05:03:33;12.25;;;8.52;;
31514;SDS011;40526;52.088;17.020;2023-05-02T05:08:35;13.27;;;7.65;;
31514;SDS011;40526;52.088;17.020;2023-05-02T05:13:38;9.68;;;7.38;;
31514;SDS011;40526;52.088;17.020;2023-05-02T05:18:42;10.93;;;7.68;;
31514;SDS011;40526;52.088;17.020;2023-05-02T05:23:48;13.07;;;7.10;;
31514;SDS011;40526;52.088;17.020;2023-05-02T05:28:57;10.07;;;7.78;;
31514;SDS011;40526;52.088;17.020;2023-05-02T05:34:05;13.35;;;7.82;;
31514;SDS011;40526;52.088;17.020;2023-05-02T05:39:09;12.60;;;7.55;;
31514;SDS011;40526;52.088;17.020;2023-05-02T05:44:15;13.50;;;9.02;;
31514;SDS011;40526;52.088;17.020;2023-05-02T05:49:19;12.27;;;9.05;;
31514;SDS011;40526;52.088;17.020;2023-05-02T05:54:23;13.07;;;8.45;;
31514;SDS011;40526;52.088;17.020;2023-05-02T05:59:26;10.82;;;8.32;;
31514;SDS011;40526;52.088;17.020;2023-05-02T06:04:30;11.38;;;8.38;;
31514;SDS011;40526;52.088;17.020;2023-05-02T06:09:33;15.20;;;9.85;;
31514;SDS011;40526;52.088;17.020;2023-05-02T06:14:36;12.85;;;8.68;;
31514;SDS011;40526;52.088;17.020;2023-05-02T06:19:39;11.10;;;7.57;;
31514;SDS011;40526;52.088;17.020;2023-05-02T06:24:42;11.30;;;7.63;;
31514;SDS011;40526;52.088;17.020;2023-05-02T06:29:44;9.15;;;6.93;;
31514;SDS011;40526;52.088;17.020;2023-05-02T06:34:48;9.30;;;6.50;;
31514;SDS011;40526;52.088;17.020;2023-05-02T06:39:50;8.73;;;6.53;;
31514;SDS011;40526;52.088;17.020;2023-05-02T06:44:52;10.32;;;7.13;;
31514;SDS011;40526;52.088;17.020;2023-05-02T06:49:56;9.68;;;6.95;;
31514;SDS011;40526;52.088;17.020;2023-05-02T06:54:59;10.20;;;7.18;;
31514;SDS011;40526;52.088;17.020;2023-05-02T07:00:01;10.65;;;6.57;;
31514;SDS011;40526;52.088;17.020;2023-05-02T07:05:05;10.20;;;6.40;;
31514;SDS011;40526;52.088;17.020;2023-05-02T07:10:09;9.43;;;6.18;;
31514;SDS011;40526;52.088;17.020;2023-05-02T07:15:14;8.50;;;6.07;;
31514;SDS011;40526;52.088;17.020;2023-05-02T07:20:18;9.63;;;5.80;;
31514;SDS011;40526;52.088;17.020;2023-05-02T07:25:20;9.27;;;5.93;;
31514;SDS011;40526;52.088;17.020;2023-05-02T07:30:22;8.15;;;5.05;;
31514;SDS011;40526;52.088;17.020;2023-05-02T07:35:28;7.13;;;4.53;;
31514;SDS011;40526;52.088;17.020;2023-05-02T07:40:31;5.40;;;4.53;;
31514;SDS011;40526;52.088;17.020;2023-05-02T07:45:33;7.40;;;5.03;;
31514;SDS011;40526;52.088;17.020;2023-05-02T07:50:37;7.18;;;4.30;;
31514;SDS011;40526;52.088;17.020;2023-05-02T07:55:39;5.22;;;4.15;;
31514;SDS011;40526;52.088;17.020;2023-05-02T08:00:42;6.85;;;4.72;;
31514;SDS011;40526;52.088;17.020;2023-05-02T08:05:46;7.45;;;4.68;;
31514;SDS011;40526;52.088;17.020;2023-05-02T08:10:48;8.57;;;5.00;;
31514;SDS011;40526;52.088;17.020;2023-05-02T08:15:50;6.00;;;4.38;;
31514;SDS011;40526;52.088;17.020;2023-05-02T08:20:58;8.85;;;3.88;;
31514;SDS011;40526;52.088;17.020;2023-05-02T08:26:00;5.82;;;3.85;;
31514;SDS011;40526;52.088;17.020;2023-05-02T08:31:02;6.32;;;4.32;;
31514;SDS011;40526;52.088;17.020;2023-05-02T08:36:10;7.85;;;4.13;;
31514;SDS011;40526;52.088;17.020;2023-05-02T08:41:14;6.95;;;3.28;;
31514;SDS011;40526;52.088;17.020;2023-05-02T08:46:17;6.13;;;3.50;;
31514;SDS011;40526;52.088;17.020;2023-05-02T08:51:20;4.47;;;3.60;;
31514;SDS011;40526;52.088;17.020;2023-05-02T08:56:24;5.40;;;3.53;;
31514;SDS011;40526;52.088;17.020;2023-05-02T09:01:27;6.00;;;3.80;;
31514;SDS011;40526;52.088;17.020;2023-05-02T09:06:32;5.22;;;3.70;;
31514;SDS011;40526;52.088;17.020;2023-05-02T09:11:36;6.38;;;4.20;;
31514;SDS011;40526;52.088;17.020;2023-05-02T09:16:39;7.00;;;5.07;;
31514;SDS011;40526;52.088;17.020;2023-05-02T09:21:43;8.27;;;4.70;;
31514;SDS011;40526;52.088;17.020;2023-05-02T09:26:55;7.65;;;5.07;;
31514;SDS011;40526;52.088;17.020;2023-05-02T09:31:58;5.88;;;4.38;;
31514;SDS011;40526;52.088;17.020;2023-05-02T09:37:01;10.63;;;5.05;;
31514;SDS011;40526;52.088;17.020;2023-05-02T09:42:04;7.68;;;4.45;;
31514;SDS011;40526;52.088;17.020;2023-05-02T09:47:06;7.38;;;4.63;;
31514;SDS011;40526;52.088;17.020;2023-05-02T09:52:11;7.57;;;5.55;;
31514;SDS011;40526;52.088;17.020;2023-05-02T09:57:13;9.00;;;5.60;;
31514;SDS011;40526;52.088;17.020;2023-05-02T10:02:15;9.30;;;5.55;;
31514;SDS011;40526;52.088;17.020;2023-05-02T10:07:19;7.70;;;5.88;;
31514;SDS011;40526;52.088;17.020;2023-05-02T10:12:21;9.32;;;5.00;;
